sensor_id;sensor_type;location;lat;lon;timestamp;P1;durP1;ratioP1;P2;durP2;ratioP2
55435;SDS011;41307;53.142;6.430;2023-08-24T00:02:09;2.85;;;1.38;;
55435;SDS011;41307;53.142;6.430;2023-08-24T00:04:36;2.00;;;1.20;;
55435;SDS011;41307;53.142;6.430;2023-08-24T00:07:03;3.30;;;0.93;;
55435;SDS011;41307;53.142;6.430;2023-08-24T00:09:29;2.40;;;1.33;;
55435;SDS011;41307;53.142;6.430;2023-08-24T00:11:55;3.70;;;1.42;;
55435;SDS011;41307;53.142;6.430;2023-08-24T00:14:20;1.80;;;0.98;;
55435;SDS011;41307;53.142;6.430;2023-08-24T00:16:46;2.40;;;1.40;;
55435;SDS011;41307;53.142;6.430;2023-08-24T00:19:12;2.83;;;1.55;;
55435;SDS011;41307;53.142;6.430;2023-08-24T00:21:38;2.40;;;1.33;;
55435;SDS011;41307;53.142;6.430;2023-08-24T00:24:03;2.22;;;1.20;;
55435;SDS011;41307;53.142;6.430;2023-08-24T00:26:29;3.50;;;1.17;;
55435;SDS011;41307;53.142;6.430;2023-08-24T00:28:58;3.10;;;1.45;;
55435;SDS011;41307;53.142;6.430;2023-08-24T00:31:24;2.42;;;1.58;;
55435;SDS011;41307;53.142;6.430;2023-08-24T00:33:49;3.05;;;1.30;;
55435;SDS011;41307;53.142;6.430;2023-08-24T00:36:15;3.65;;;1.73;;
55435;SDS011;41307;53.142;6.430;2023-08-24T00:38:43;3.60;;;1.38;;
55435;SDS011;41307;53.142;6.430;2023-08-24T00:41:08;2.17;;;1.40;;
55435;SDS011;41307;53.142;6.430;2023-08-24T00:43:34;3.17;;;1.50;;
55435;SDS011;41307;53.142;6.430;2023-08-24T00:46:01;2.10;;;1.13;;
55435;SDS011;41307;53.142;6.430;2023-08-24T00:48:29;2.42;;;1.13;;
55435;SDS011;41307;53.142;6.430;2023-08-24T00:50:57;3.17;;;1.50;;
55435;SDS011;41307;53.142;6.430;2023-08-24T00:53:25;4.30;;;1.30;;
55435;SDS011;41307;53.142;6.430;2023-08-24T00:55:53;2.33;;;1.10;;
55435;SDS011;41307;53.142;6.430;2023-08-24T00:58:19;3.67;;;1.20;;
55435;SDS011;41307;53.142;6.430;2023-08-24T01:00:45;2.80;;;1.20;;
55435;SDS011;41307;53.142;6.430;2023-08-24T01:03:11;3.03;;;1.20;;
55435;SDS011;41307;53.142;6.430;2023-08-24T01:05:37;1.85;;;1.13;;
55435;SDS011;41307;53.142;6.430;2023-08-24T01:08:03;2.22;;;0.90;;
55435;SDS011;41307;53.142;6.430;2023-08-24T01:10:30;1.25;;;0.88;;
55435;SDS011;41307;53.142;6.430;2023-08-24T01:13:34;2.05;;;0.90;;
55435;SDS011;41307;53.142;6.430;2023-08-24T01:16:18;1.92;;;1.35;;
55435;SDS011;41307;53.142;6.430;2023-08-24T01:18:51;1.92;;;1.00;;
55435;SDS011;41307;53.142;6.430;2023-08-24T01:21:20;2.45;;;1.20;;
55435;SDS011;41307;53.142;6.430;2023-08-24T01:26:37;2.03;;;1.20;;
55435;SDS011;41307;53.142;6.430;2023-08-24T01:29:04;2.30;;;1.50;;
55435;SDS011;41307;53.142;6.430;2023-08-24T01:31:32;2.22;;;1.38;;
55435;SDS011;41307;53.142;6.430;2023-08-24T01:33:58;3.15;;;1.50;;
55435;SDS011;41307;53.142;6.430;2023-08-24T01:36:25;3.67;;;1.65;;
55435;SDS011;41307;53.142;6.430;2023-08-24T01:38:54;3.28;;;1.60;;
55435;SDS011;41307;53.142;6.430;2023-08-24T01:41:33;2.58;;;1.33;;
55435;SDS011;41307;53.142;6.430;2023-08-24T01:44:03;3.33;;;1.48;;
55435;SDS011;41307;53.142;6.430;2023-08-24T01:46:31;2.05;;;1.27;;
55435;SDS011;41307;53.142;6.430;2023-08-24T01:48:59;3.15;;;1.58;;
55435;SDS011;41307;53.142;6.430;2023-08-24T01:51:25;2.92;;;1.60;;
55435;SDS011;41307;53.142;6.430;2023-08-24T01:53:52;3.58;;;2.15;;
55435;SDS011;41307;53.142;6.430;2023-08-24T01:56:18;5.32;;;1.73;;
55435;SDS011;41307;53.142;6.430;2023-08-24T01:58:45;3.90;;;1.90;;
55435;SDS011;41307;53.142;6.430;2023-08-24T02:01:11;2.70;;;1.70;;
55435;SDS011;41307;53.142;6.430;2023-08-24T02:03:37;3.72;;;1.80;;
55435;SDS011;41307;53.142;6.430;2023-08-24T02:06:06;3.35;;;2.20;;
55435;SDS011;41307;53.142;6.430;2023-08-24T02:08:33;3.55;;;2.17;;
55435;SDS011;41307;53.142;6.430;2023-08-24T02:10:58;4.28;;;2.58;;
55435;SDS011;41307;53.142;6.430;2023-08-24T02:13:24;3.15;;;2.03;;
55435;SDS011;41307;53.142;6.430;2023-08-24T02:15:50;6.90;;;2.75;;
55435;SDS011;41307;53.142;6.430;2023-08-24T02:18:15;4.53;;;2.60;;
55435;SDS011;41307;53.142;6.430;2023-08-24T02:20:41;3.97;;;2.72;;
55435;SDS011;41307;53.142;6.430;2023-08-24T02:23:07;4.20;;;2.35;;
55435;SDS011;41307;53.142;6.430;2023-08-24T02:25:32;4.00;;;3.05;;
55435;SDS011;41307;53.142;6.430;2023-08-24T02:27:58;3.60;;;2.28;;
55435;SDS011;41307;53.142;6.430;2023-08-24T02:30:24;4.47;;;2.33;;
55435;SDS011;41307;53.142;6.430;2023-08-24T02:32:51;7.47;;;2.97;;
55435;SDS011;41307;53.142;6.430;2023-08-24T02:35:16;4.03;;;2.42;;
55435;SDS011;41307;53.142;6.430;2023-08-24T02:37:43;6.57;;;2.78;;
55435;SDS011;41307;53.142;6.430;2023-08-24T02:40:09;4.13;;;2.70;;
55435;SDS011;41307;53.142;6.430;2023-08-24T02:42:35;4.35;;;2.60;;
55435;SDS011;41307;53.142;6.430;2023-08-24T02:45:00;7.30;;;2.72;;
55435;SDS011;41307;53.142;6.430;2023-08-24T02:47:27;4.55;;;2.47;;
55435;SDS011;41307;53.142;6.430;2023-08-24T02:49:53;5.07;;;2.65;;
55435;SDS011;41307;53.142;6.430;2023-08-24T02:52:18;6.18;;;2.90;;
55435;SDS011;41307;53.142;6.430;2023-08-24T02:54:44;5.45;;;2.90;;
55435;SDS011;41307;53.142;6.430;2023-08-24T02:57:10;5.65;;;2.53;;
55435;SDS011;41307;53.142;6.430;2023-08-24T02:59:35;5.05;;;2.83;;
55435;SDS011;41307;53.142;6.430;2023-08-24T03:02:01;4.05;;;2.67;;
55435;SDS011;41307;53.142;6.430;2023-08-24T03:04:27;4.20;;;2.65;;
55435;SDS011;41307;53.142;6.430;2023-08-24T03:06:53;4.18;;;2.35;;
55435;SDS011;41307;53.142;6.430;2023-08-24T03:09:19;5.13;;;2.60;;
55435;SDS011;41307;53.142;6.430;2023-08-24T03:11:45;4.45;;;2.65;;
55435;SDS011;41307;53.142;6.430;2023-08-24T03:14:10;4.13;;;2.67;;
55435;SDS011;41307;53.142;6.430;2023-08-24T03:16:37;6.05;;;3.00;;
55435;SDS011;41307;53.142;6.430;2023-08-24T03:19:04;4.00;;;2.67;;
55435;SDS011;41307;53.142;6.430;2023-08-24T03:21:30;4.60;;;2.88;;
55435;SDS011;41307;53.142;6.430;2023-08-24T03:23:56;4.43;;;3.08;;
55435;SDS011;41307;53.142;6.430;2023-08-24T03:26:22;5.00;;;2.78;;
55435;SDS011;41307;53.142;6.430;2023-08-24T03:28:48;6.75;;;2.67;;
55435;SDS011;41307;53.142;6.430;2023-08-24T03:31:15;4.60;;;2.97;;
55435;SDS011;41307;53.142;6.430;2023-08-24T03:33:41;6.45;;;3.05;;
55435;SDS011;41307;53.142;6.430;2023-08-24T03:36:06;5.53;;;2.60;;
55435;SDS011;41307;53.142;6.430;2023-08-24T03:38:32;4.55;;;2.90;;
55435;SDS011;41307;53.142;6.430;2023-08-24T03:41:01;4.57;;;2.90;;
55435;SDS011;41307;53.142;6.430;2023-08-24T03:43:30;5.28;;;2.80;;
55435;SDS011;41307;53.142;6.430;2023-08-24T03:45:58;4.22;;;2.88;;
55435;SDS011;41307;53.142;6.430;2023-08-24T03:48:23;3.63;;;2.85;;
55435;SDS011;41307;53.142;6.430;2023-08-24T03:50:49;5.15;;;2.50;;
55435;SDS011;41307;53.142;6.430;2023-08-24T03:53:15;5.22;;;2.90;;
55435;SDS011;41307;53.142;6.430;2023-08-24T03:55:40;6.68;;;3.10;;
55435;SDS011;41307;53.142;6.430;2023-08-24T03:58:06;4.38;;;2.45;;
55435;SDS011;41307;53.142;6.430;2023-08-24T04:00:32;5.25;;;2.58;;
55435;SDS011;41307;53.142;6.430;2023-08-24T04:02:57;4.10;;;2.53;;
55435;SDS011;41307;53.142;6.430;2023-08-24T04:05:23;3.22;;;2.28;;
55435;SDS011;41307;53.142;6.430;2023-08-24T04:07:49;4.45;;;2.65;;
55435;SDS011;41307;53.142;6.430;2023-08-24T04:10:15;3.75;;;2.65;;
55435;SDS011;41307;53.142;6.430;2023-08-24T04:12:41;4.35;;;2.38;;
55435;SDS011;41307;53.142;6.430;2023-08-24T04:15:07;3.30;;;2.40;;
55435;SDS011;41307;53.142;6.430;2023-08-24T04:17:34;4.32;;;2.83;;
55435;SDS011;41307;53.142;6.430;2023-08-24T04:19:59;3.13;;;2.33;;
55435;SDS011;41307;53.142;6.430;2023-08-24T04:22:25;3.90;;;2.28;;
55435;SDS011;41307;53.142;6.430;2023-08-24T04:24:51;3.60;;;2.22;;
55435;SDS011;41307;53.142;6.430;2023-08-24T04:27:16;4.43;;;2.65;;
55435;SDS011;41307;53.142;6.430;2023-08-24T04:29:42;3.90;;;2.97;;
55435;SDS011;41307;53.142;6.430;2023-08-24T04:32:08;3.58;;;2.70;;
55435;SDS011;41307;53.142;6.430;2023-08-24T04:34:33;4.45;;;2.60;;
55435;SDS011;41307;53.142;6.430;2023-08-24T04:36:59;4.03;;;2.47;;
55435;SDS011;41307;53.142;6.430;2023-08-24T04:39:26;5.30;;;2.95;;
55435;SDS011;41307;53.142;6.430;2023-08-24T04:41:52;5.35;;;2.70;;
55435;SDS011;41307;53.142;6.430;2023-08-24T04:44:17;5.90;;;2.92;;
55435;SDS011;41307;53.142;6.430;2023-08-24T04:46:43;3.58;;;2.45;;
55435;SDS011;41307;53.142;6.430;2023-08-24T04:49:09;4.00;;;2.47;;
55435;SDS011;41307;53.142;6.430;2023-08-24T04:51:35;4.65;;;2.65;;
55435;SDS011;41307;53.142;6.430;2023-08-24T04:54:00;3.67;;;2.28;;
55435;SDS011;41307;53.142;6.430;2023-08-24T04:56:27;4.85;;;3.00;;
55435;SDS011;41307;53.142;6.430;2023-08-24T04:58:53;3.88;;;2.38;;
55435;SDS011;41307;53.142;6.430;2023-08-24T05:01:26;6.15;;;2.60;;
55435;SDS011;41307;53.142;6.430;2023-08-24T05:03:52;5.00;;;2.95;;
55435;SDS011;41307;53.142;6.430;2023-08-24T05:06:18;3.92;;;2.75;;
55435;SDS011;41307;53.142;6.430;2023-08-24T05:08:45;4.03;;;2.92;;
55435;SDS011;41307;53.142;6.430;2023-08-24T05:11:17;3.85;;;2.90;;
55435;SDS011;41307;53.142;6.430;2023-08-24T05:13:44;4.30;;;2.47;;
55435;SDS011;41307;53.142;6.430;2023-08-24T05:16:11;3.83;;;2.63;;
55435;SDS011;41307;53.142;6.430;2023-08-24T05:18:37;4.68;;;2.92;;
55435;SDS011;41307;53.142;6.430;2023-08-24T05:21:03;4.18;;;2.50;;
55435;SDS011;41307;53.142;6.430;2023-08-24T05:23:33;3.92;;;2.53;;
55435;SDS011;41307;53.142;6.430;2023-08-24T05:25:59;4.22;;;2.83;;
55435;SDS011;41307;53.142;6.430;2023-08-24T05:28:27;3.78;;;2.65;;
55435;SDS011;41307;53.142;6.430;2023-08-24T05:30:54;4.60;;;2.55;;
55435;SDS011;41307;53.142;6.430;2023-08-24T05:33:20;5.00;;;2.95;;
55435;SDS011;41307;53.142;6.430;2023-08-24T05:35:47;4.13;;;2.72;;
55435;SDS011;41307;53.142;6.430;2023-08-24T05:38:14;5.32;;;2.70;;
55435;SDS011;41307;53.142;6.430;2023-08-24T05:40:41;5.90;;;3.15;;
55435;SDS011;41307;53.142;6.430;2023-08-24T05:43:08;5.50;;;2.83;;
55435;SDS011;41307;53.142;6.430;2023-08-24T05:45:35;4.80;;;2.58;;
55435;SDS011;41307;53.142;6.430;2023-08-24T05:48:01;3.67;;;2.75;;
55435;SDS011;41307;53.142;6.430;2023-08-24T05:50:27;4.03;;;2.63;;
55435;SDS011;41307;53.142;6.430;2023-08-24T05:52:53;3.20;;;2.35;;
55435;SDS011;41307;53.142;6.430;2023-08-24T05:55:19;3.78;;;2.10;;
55435;SDS011;41307;53.142;6.430;2023-08-24T05:57:45;4.68;;;2.17;;
55435;SDS011;41307;53.142;6.430;2023-08-24T06:00:11;3.97;;;2.13;;
55435;SDS011;41307;53.142;6.430;2023-08-24T06:02:38;3.65;;;2.03;;
55435;SDS011;41307;53.142;6.430;2023-08-24T06:05:04;2.92;;;1.88;;
55435;SDS011;41307;53.142;6.430;2023-08-24T06:07:31;3.08;;;1.48;;
55435;SDS011;41307;53.142;6.430;2023-08-24T06:09:57;2.85;;;1.83;;
55435;SDS011;41307;53.142;6.430;2023-08-24T06:12:23;2.78;;;1.40;;
55435;SDS011;41307;53.142;6.430;2023-08-24T06:14:49;3.90;;;1.70;;
55435;SDS011;41307;53.142;6.430;2023-08-24T06:17:15;3.47;;;1.73;;
55435;SDS011;41307;53.142;6.430;2023-08-24T06:19:40;3.90;;;1.98;;
55435;SDS011;41307;53.142;6.430;2023-08-24T06:22:06;3.30;;;2.17;;
55435;SDS011;41307;53.142;6.430;2023-08-24T06:24:32;4.63;;;2.05;;
55435;SDS011;41307;53.142;6.430;2023-08-24T06:26:58;4.07;;;2.15;;
55435;SDS011;41307;53.142;6.430;2023-08-24T06:29:24;4.22;;;2.20;;
55435;SDS011;41307;53.142;6.430;2023-08-24T06:31:49;5.38;;;2.55;;
55435;SDS011;41307;53.142;6.430;2023-08-24T06:34:15;3.10;;;2.20;;
55435;SDS011;41307;53.142;6.430;2023-08-24T06:36:41;4.43;;;2.58;;
55435;SDS011;41307;53.142;6.430;2023-08-24T06:39:06;2.90;;;2.28;;
55435;SDS011;41307;53.142;6.430;2023-08-24T06:41:36;4.03;;;2.30;;
55435;SDS011;41307;53.142;6.430;2023-08-24T06:44:02;3.00;;;2.17;;
55435;SDS011;41307;53.142;6.430;2023-08-24T06:46:28;3.10;;;2.38;;
55435;SDS011;41307;53.142;6.430;2023-08-24T06:48:54;3.35;;;2.10;;
55435;SDS011;41307;53.142;6.430;2023-08-24T06:51:20;3.40;;;2.47;;
55435;SDS011;41307;53.142;6.430;2023-08-24T06:53:46;3.33;;;1.90;;
55435;SDS011;41307;53.142;6.430;2023-08-24T06:56:14;3.85;;;2.10;;
55435;SDS011;41307;53.142;6.430;2023-08-24T06:58:40;3.25;;;1.42;;
55435;SDS011;41307;53.142;6.430;2023-08-24T07:01:08;3.10;;;1.73;;
55435;SDS011;41307;53.142;6.430;2023-08-24T07:03:34;3.30;;;1.60;;
55435;SDS011;41307;53.142;6.430;2023-08-24T07:06:00;2.90;;;1.52;;
55435;SDS011;41307;53.142;6.430;2023-08-24T07:08:25;3.85;;;1.75;;
55435;SDS011;41307;53.142;6.430;2023-08-24T07:10:51;4.57;;;1.92;;
55435;SDS011;41307;53.142;6.430;2023-08-24T07:13:17;3.40;;;1.63;;
55435;SDS011;41307;53.142;6.430;2023-08-24T07:15:43;2.70;;;1.60;;
55435;SDS011;41307;53.142;6.430;2023-08-24T07:18:10;2.60;;;1.77;;
55435;SDS011;41307;53.142;6.430;2023-08-24T07:20:36;2.70;;;1.48;;
55435;SDS011;41307;53.142;6.430;2023-08-24T07:23:02;4.20;;;1.80;;
55435;SDS011;41307;53.142;6.430;2023-08-24T07:25:28;3.38;;;1.50;;
55435;SDS011;41307;53.142;6.430;2023-08-24T07:27:54;2.67;;;1.35;;
55435;SDS011;41307;53.142;6.430;2023-08-24T07:30:27;4.00;;;1.45;;
55435;SDS011;41307;53.142;6.430;2023-08-24T07:32:53;2.58;;;1.60;;
55435;SDS011;41307;53.142;6.430;2023-08-24T07:35:19;3.75;;;1.50;;
55435;SDS011;41307;53.142;6.430;2023-08-24T07:37:48;1.90;;;1.20;;
55435;SDS011;41307;53.142;6.430;2023-08-24T07:40:14;2.20;;;1.25;;
55435;SDS011;41307;53.142;6.430;2023-08-24T07:42:49;2.55;;;1.30;;
55435;SDS011;41307;53.142;6.430;2023-08-24T07:45:18;3.38;;;1.55;;
55435;SDS011;41307;53.142;6.430;2023-08-24T07:47:44;2.60;;;1.10;;
55435;SDS011;41307;53.142;6.430;2023-08-24T07:50:10;4.00;;;1.00;;
55435;SDS011;41307;53.142;6.430;2023-08-24T07:52:37;3.33;;;1.17;;
55435;SDS011;41307;53.142;6.430;2023-08-24T07:55:04;2.00;;;1.00;;
55435;SDS011;41307;53.142;6.430;2023-08-24T07:57:34;1.77;;;0.88;;
55435;SDS011;41307;53.142;6.430;2023-08-24T08:00:01;1.80;;;1.08;;
55435;SDS011;41307;53.142;6.430;2023-08-24T08:02:27;4.45;;;1.23;;
55435;SDS011;41307;53.142;6.430;2023-08-24T08:04:56;3.90;;;1.00;;
55435;SDS011;41307;53.142;6.430;2023-08-24T08:07:28;1.75;;;0.90;;
55435;SDS011;41307;53.142;6.430;2023-08-24T08:09:54;2.50;;;1.20;;
55435;SDS011;41307;53.142;6.430;2023-08-24T08:12:22;3.28;;;1.23;;
55435;SDS011;41307;53.142;6.430;2023-08-24T08:14:48;2.33;;;1.40;;
55435;SDS011;41307;53.142;6.430;2023-08-24T08:17:15;2.22;;;1.30;;
55435;SDS011;41307;53.142;6.430;2023-08-24T08:19:40;3.17;;;1.27;;
55435;SDS011;41307;53.142;6.430;2023-08-24T08:22:06;1.70;;;1.10;;
55435;SDS011;41307;53.142;6.430;2023-08-24T08:24:33;1.63;;;1.00;;
55435;SDS011;41307;53.142;6.430;2023-08-24T08:26:58;2.20;;;1.15;;
55435;SDS011;41307;53.142;6.430;2023-08-24T08:29:25;2.97;;;1.30;;
55435;SDS011;41307;53.142;6.430;2023-08-24T08:31:50;2.97;;;1.30;;
55435;SDS011;41307;53.142;6.430;2023-08-24T08:34:16;3.08;;;1.02;;
55435;SDS011;41307;53.142;6.430;2023-08-24T08:36:42;2.55;;;1.60;;
55435;SDS011;41307;53.142;6.430;2023-08-24T08:39:09;2.15;;;1.00;;
55435;SDS011;41307;53.142;6.430;2023-08-24T08:41:41;2.42;;;1.30;;
55435;SDS011;41307;53.142;6.430;2023-08-24T08:44:09;2.60;;;1.38;;
55435;SDS011;41307;53.142;6.430;2023-08-24T08:46:37;2.10;;;1.45;;
55435;SDS011;41307;53.142;6.430;2023-08-24T08:49:04;3.45;;;1.55;;
55435;SDS011;41307;53.142;6.430;2023-08-24T08:51:33;4.47;;;1.80;;
55435;SDS011;41307;53.142;6.430;2023-08-24T08:54:01;3.90;;;1.30;;
55435;SDS011;41307;53.142;6.430;2023-08-24T08:56:28;2.55;;;1.30;;
55435;SDS011;41307;53.142;6.430;2023-08-24T08:58:55;3.35;;;1.42;;
55435;SDS011;41307;53.142;6.430;2023-08-24T09:01:24;3.58;;;1.65;;
55435;SDS011;41307;53.142;6.430;2023-08-24T09:03:50;1.95;;;1.40;;
55435;SDS011;41307;53.142;6.430;2023-08-24T09:06:17;3.05;;;1.50;;
55435;SDS011;41307;53.142;6.430;2023-08-24T09:08:43;2.53;;;1.58;;
55435;SDS011;41307;53.142;6.430;2023-08-24T09:11:09;2.80;;;1.63;;
55435;SDS011;41307;53.142;6.430;2023-08-24T09:13:35;3.13;;;1.55;;
55435;SDS011;41307;53.142;6.430;2023-08-24T09:16:02;2.53;;;1.48;;
55435;SDS011;41307;53.142;6.430;2023-08-24T09:18:37;3.70;;;1.38;;
55435;SDS011;41307;53.142;6.430;2023-08-24T09:21:09;4.13;;;1.52;;
55435;SDS011;41307;53.142;6.430;2023-08-24T09:23:43;2.90;;;1.58;;
55435;SDS011;41307;53.142;6.430;2023-08-24T09:26:14;2.85;;;1.80;;
55435;SDS011;41307;53.142;6.430;2023-08-24T09:28:42;2.67;;;1.75;;
55435;SDS011;41307;53.142;6.430;2023-08-24T09:31:08;2.40;;;1.55;;
55435;SDS011;41307;53.142;6.430;2023-08-24T09:33:35;4.00;;;1.77;;
55435;SDS011;41307;53.142;6.430;2023-08-24T09:36:01;2.45;;;1.58;;
55435;SDS011;41307;53.142;6.430;2023-08-24T09:38:32;2.72;;;1.45;;
55435;SDS011;41307;53.142;6.430;2023-08-24T09:40:58;2.50;;;1.70;;
55435;SDS011;41307;53.142;6.430;2023-08-24T09:43:24;2.60;;;1.60;;
55435;SDS011;41307;53.142;6.430;2023-08-24T09:45:59;4.88;;;1.85;;
55435;SDS011;41307;53.142;6.430;2023-08-24T09:48:25;3.25;;;1.73;;
55435;SDS011;41307;53.142;6.430;2023-08-24T09:50:51;3.63;;;1.92;;
55435;SDS011;41307;53.142;6.430;2023-08-24T09:53:18;4.35;;;2.22;;
55435;SDS011;41307;53.142;6.430;2023-08-24T09:56:07;3.00;;;1.90;;
55435;SDS011;41307;53.142;6.430;2023-08-24T09:58:33;2.92;;;1.67;;
55435;SDS011;41307;53.142;6.430;2023-08-24T10:00:59;4.57;;;2.03;;
55435;SDS011;41307;53.142;6.430;2023-08-24T10:03:28;3.53;;;1.98;;
55435;SDS011;41307;53.142;6.430;2023-08-24T10:05:57;3.75;;;2.20;;
55435;SDS011;41307;53.142;6.430;2023-08-24T10:08:47;5.65;;;2.58;;
55435;SDS011;41307;53.142;6.430;2023-08-24T10:11:21;4.22;;;2.38;;
55435;SDS011;41307;53.142;6.430;2023-08-24T10:14:04;4.38;;;2.10;;
55435;SDS011;41307;53.142;6.430;2023-08-24T10:16:35;3.55;;;2.10;;
55435;SDS011;41307;53.142;6.430;2023-08-24T10:19:02;3.95;;;2.08;;
55435;SDS011;41307;53.142;6.430;2023-08-24T10:21:29;3.88;;;1.80;;
55435;SDS011;41307;53.142;6.430;2023-08-24T10:23:56;3.45;;;2.00;;
55435;SDS011;41307;53.142;6.430;2023-08-24T10:26:22;3.38;;;1.85;;
55435;SDS011;41307;53.142;6.430;2023-08-24T10:28:49;6.30;;;2.50;;
55435;SDS011;41307;53.142;6.430;2023-08-24T10:31:16;3.75;;;2.20;;
55435;SDS011;41307;53.142;6.430;2023-08-24T10:33:43;3.20;;;2.05;;
55435;SDS011;41307;53.142;6.430;2023-08-24T10:36:12;4.82;;;2.28;;
55435;SDS011;41307;53.142;6.430;2023-08-24T10:38:43;3.65;;;2.00;;
55435;SDS011;41307;53.142;6.430;2023-08-24T10:41:09;4.05;;;2.47;;
55435;SDS011;41307;53.142;6.430;2023-08-24T10:43:48;3.80;;;2.33;;
55435;SDS011;41307;53.142;6.430;2023-08-24T10:46:14;4.20;;;1.88;;
55435;SDS011;41307;53.142;6.430;2023-08-24T10:53:39;4.07;;;2.20;;
55435;SDS011;41307;53.142;6.430;2023-08-24T10:56:12;5.25;;;2.47;;
55435;SDS011;41307;53.142;6.430;2023-08-24T10:58:39;3.17;;;2.03;;
55435;SDS011;41307;53.142;6.430;2023-08-24T11:01:05;3.38;;;2.08;;
55435;SDS011;41307;53.142;6.430;2023-08-24T11:03:31;5.03;;;1.63;;
55435;SDS011;41307;53.142;6.430;2023-08-24T11:05:58;2.60;;;2.00;;
55435;SDS011;41307;53.142;6.430;2023-08-24T11:11:22;2.92;;;1.85;;
55435;SDS011;41307;53.142;6.430;2023-08-24T11:14:12;4.38;;;1.70;;
55435;SDS011;41307;53.142;6.430;2023-08-24T11:16:43;4.40;;;1.92;;
55435;SDS011;41307;53.142;6.430;2023-08-24T11:19:13;4.38;;;2.85;;
55435;SDS011;41307;53.142;6.430;2023-08-24T11:21:41;4.30;;;2.40;;
55435;SDS011;41307;53.142;6.430;2023-08-24T11:24:12;3.72;;;2.40;;
55435;SDS011;41307;53.142;6.430;2023-08-24T11:26:42;3.67;;;2.20;;
55435;SDS011;41307;53.142;6.430;2023-08-24T11:29:09;4.15;;;2.17;;
55435;SDS011;41307;53.142;6.430;2023-08-24T11:31:36;4.07;;;2.20;;
55435;SDS011;41307;53.142;6.430;2023-08-24T11:34:03;4.03;;;2.40;;
55435;SDS011;41307;53.142;6.430;2023-08-24T11:36:30;3.40;;;2.60;;
55435;SDS011;41307;53.142;6.430;2023-08-24T11:38:57;5.05;;;2.42;;
55435;SDS011;41307;53.142;6.430;2023-08-24T11:41:24;4.93;;;2.35;;
55435;SDS011;41307;53.142;6.430;2023-08-24T11:43:58;5.10;;;2.50;;
55435;SDS011;41307;53.142;6.430;2023-08-24T11:46:25;3.80;;;2.40;;
55435;SDS011;41307;53.142;6.430;2023-08-24T11:48:54;3.85;;;2.88;;
55435;SDS011;41307;53.142;6.430;2023-08-24T11:51:20;4.72;;;2.65;;
55435;SDS011;41307;53.142;6.430;2023-08-24T11:53:46;4.70;;;2.75;;
55435;SDS011;41307;53.142;6.430;2023-08-24T11:56:12;6.43;;;3.08;;
55435;SDS011;41307;53.142;6.430;2023-08-24T11:58:39;4.72;;;3.00;;
55435;SDS011;41307;53.142;6.430;2023-08-24T12:01:06;7.25;;;3.30;;
55435;SDS011;41307;53.142;6.430;2023-08-24T12:03:37;4.72;;;3.13;;
55435;SDS011;41307;53.142;6.430;2023-08-24T12:06:09;7.50;;;3.75;;
55435;SDS011;41307;53.142;6.430;2023-08-24T12:08:44;5.68;;;3.05;;
55435;SDS011;41307;53.142;6.430;2023-08-24T12:11:18;6.28;;;3.10;;
55435;SDS011;41307;53.142;6.430;2023-08-24T12:13:46;4.63;;;3.03;;
55435;SDS011;41307;53.142;6.430;2023-08-24T12:16:14;4.13;;;3.10;;
55435;SDS011;41307;53.142;6.430;2023-08-24T12:18:47;6.57;;;3.22;;
55435;SDS011;41307;53.142;6.430;2023-08-24T12:21:21;6.57;;;3.50;;
55435;SDS011;41307;53.142;6.430;2023-08-24T12:26:26;5.43;;;3.20;;
55435;SDS011;41307;53.142;6.430;2023-08-24T12:28:53;7.22;;;3.42;;
55435;SDS011;41307;53.142;6.430;2023-08-24T12:31:20;4.72;;;3.22;;
55435;SDS011;41307;53.142;6.430;2023-08-24T12:34:04;4.43;;;3.03;;
55435;SDS011;41307;53.142;6.430;2023-08-24T12:36:32;5.93;;;3.10;;
55435;SDS011;41307;53.142;6.430;2023-08-24T12:38:58;5.20;;;3.05;;
55435;SDS011;41307;53.142;6.430;2023-08-24T12:41:24;3.88;;;2.67;;
55435;SDS011;41307;53.142;6.430;2023-08-24T12:43:50;6.85;;;3.33;;
55435;SDS011;41307;53.142;6.430;2023-08-24T12:46:17;4.82;;;2.78;;
55435;SDS011;41307;53.142;6.430;2023-08-24T12:48:43;5.50;;;2.63;;
55435;SDS011;41307;53.142;6.430;2023-08-24T12:51:08;4.65;;;3.20;;
55435;SDS011;41307;53.142;6.430;2023-08-24T12:53:34;5.53;;;3.05;;
55435;SDS011;41307;53.142;6.430;2023-08-24T12:56:00;5.82;;;3.17;;
55435;SDS011;41307;53.142;6.430;2023-08-24T12:58:26;6.65;;;3.53;;
55435;SDS011;41307;53.142;6.430;2023-08-24T13:00:51;5.88;;;3.50;;
55435;SDS011;41307;53.142;6.430;2023-08-24T13:03:17;5.53;;;3.33;;
55435;SDS011;41307;53.142;6.430;2023-08-24T13:05:43;6.80;;;3.25;;
55435;SDS011;41307;53.142;6.430;2023-08-24T13:08:08;5.63;;;3.47;;
55435;SDS011;41307;53.142;6.430;2023-08-24T13:10:34;5.00;;;3.10;;
55435;SDS011;41307;53.142;6.430;2023-08-24T13:13:02;6.47;;;3.33;;
55435;SDS011;41307;53.142;6.430;2023-08-24T13:15:28;5.22;;;3.42;;
55435;SDS011;41307;53.142;6.430;2023-08-24T13:17:54;5.57;;;3.40;;
55435;SDS011;41307;53.142;6.430;2023-08-24T13:20:21;5.15;;;3.15;;
55435;SDS011;41307;53.142;6.430;2023-08-24T13:22:47;7.22;;;4.00;;
55435;SDS011;41307;53.142;6.430;2023-08-24T13:25:12;4.57;;;3.10;;
55435;SDS011;41307;53.142;6.430;2023-08-24T13:27:38;5.10;;;3.65;;
55435;SDS011;41307;53.142;6.430;2023-08-24T13:30:04;5.10;;;2.92;;
55435;SDS011;41307;53.142;6.430;2023-08-24T13:32:30;4.63;;;3.55;;
55435;SDS011;41307;53.142;6.430;2023-08-24T13:34:56;6.72;;;3.60;;
55435;SDS011;41307;53.142;6.430;2023-08-24T13:37:22;6.00;;;3.63;;
55435;SDS011;41307;53.142;6.430;2023-08-24T13:39:49;6.63;;;3.78;;
55435;SDS011;41307;53.142;6.430;2023-08-24T13:42:16;7.65;;;3.45;;
55435;SDS011;41307;53.142;6.430;2023-08-24T13:44:41;5.75;;;3.80;;
55435;SDS011;41307;53.142;6.430;2023-08-24T13:47:08;5.45;;;3.72;;
55435;SDS011;41307;53.142;6.430;2023-08-24T13:49:34;8.73;;;3.60;;
55435;SDS011;41307;53.142;6.430;2023-08-24T13:51:59;5.40;;;3.40;;
55435;SDS011;41307;53.142;6.430;2023-08-24T13:54:25;5.82;;;3.78;;
55435;SDS011;41307;53.142;6.430;2023-08-24T13:56:51;4.97;;;3.50;;
55435;SDS011;41307;53.142;6.430;2023-08-24T13:59:19;6.50;;;3.38;;
55435;SDS011;41307;53.142;6.430;2023-08-24T14:01:45;5.03;;;3.88;;
55435;SDS011;41307;53.142;6.430;2023-08-24T14:04:10;5.22;;;3.55;;
55435;SDS011;41307;53.142;6.430;2023-08-24T14:06:36;4.78;;;3.42;;
55435;SDS011;41307;53.142;6.430;2023-08-24T14:09:05;5.85;;;4.03;;
55435;SDS011;41307;53.142;6.430;2023-08-24T14:11:31;5.57;;;3.60;;
55435;SDS011;41307;53.142;6.430;2023-08-24T14:13:58;5.80;;;4.07;;
55435;SDS011;41307;53.142;6.430;2023-08-24T14:16:25;4.85;;;3.65;;
55435;SDS011;41307;53.142;6.430;2023-08-24T14:18:51;6.60;;;3.92;;
55435;SDS011;41307;53.142;6.430;2023-08-24T14:21:18;5.38;;;3.80;;
55435;SDS011;41307;53.142;6.430;2023-08-24T14:23:45;5.55;;;3.40;;
55435;SDS011;41307;53.142;6.430;2023-08-24T14:26:11;6.28;;;3.58;;
55435;SDS011;41307;53.142;6.430;2023-08-24T14:28:53;5.63;;;3.92;;
55435;SDS011;41307;53.142;6.430;2023-08-24T14:31:21;7.85;;;3.78;;
55435;SDS011;41307;53.142;6.430;2023-08-24T14:33:47;6.68;;;4.40;;
55435;SDS011;41307;53.142;6.430;2023-08-24T14:36:13;5.07;;;3.72;;
55435;SDS011;41307;53.142;6.430;2023-08-24T14:38:39;6.82;;;3.88;;
55435;SDS011;41307;53.142;6.430;2023-08-24T14:41:05;5.88;;;3.85;;
55435;SDS011;41307;53.142;6.430;2023-08-24T14:43:35;5.82;;;4.03;;
55435;SDS011;41307;53.142;6.430;2023-08-24T14:46:01;5.55;;;3.83;;
55435;SDS011;41307;53.142;6.430;2023-08-24T14:48:27;6.32;;;4.28;;
55435;SDS011;41307;53.142;6.430;2023-08-24T14:50:52;6.85;;;4.15;;
55435;SDS011;41307;53.142;6.430;2023-08-24T14:53:18;5.35;;;4.00;;
55435;SDS011;41307;53.142;6.430;2023-08-24T14:55:44;6.05;;;4.47;;
55435;SDS011;41307;53.142;6.430;2023-08-24T14:58:09;6.50;;;3.95;;
55435;SDS011;41307;53.142;6.430;2023-08-24T15:00:35;5.82;;;4.20;;
55435;SDS011;41307;53.142;6.430;2023-08-24T15:03:01;8.23;;;4.60;;